createdAt,value
2019-04-22T00:02:24.649Z,99541.97
2019-04-22T00:05:04.785Z,99537.80
2019-04-22T00:07:48.546Z,99546.55
2019-04-22T00:10:20.909Z,99539.95
2019-04-22T00:15:15.679Z,99535.08
2019-04-22T00:17:55.166Z,99529.72
2019-04-22T00:20:27.722Z,99529.91
2019-04-22T00:22:44.688Z,99527.12
2019-04-22T00:25:23.579Z,99525.39
2019-04-22T00:27:56.402Z,99520.26
2019-04-22T00:30:22.130Z,99518.54
2019-04-22T00:33:07.998Z,99524.77
2019-04-22T00:35:41.642Z,99519.08
2019-04-22T00:38:17.422Z,99515.08
2019-04-22T00:40:46.384Z,99515.29
2019-04-22T00:43:16.462Z,99512.30
2019-04-22T00:45:44.540Z,99515.27
2019-04-22T00:48:21.065Z,99501.80
2019-04-22T00:56:10.640Z,99490.41
2019-04-22T00:58:41.232Z,99482.57
2019-04-22T01:01:14.390Z,99490.28
2019-04-22T01:03:51.016Z,99487.36
2019-04-22T01:06:18.926Z,99489.71
2019-04-22T01:08:53.711Z,99481.23
2019-04-22T01:11:16.800Z,99484.67
2019-04-22T01:13:45.604Z,99485.41
2019-04-22T01:16:17.482Z,99487.53
2019-04-22T01:18:45.172Z,99479.22
2019-04-22T01:21:38.554Z,99478.83
2019-04-22T01:23:41.100Z,99482.16
2019-04-22T01:26:15.899Z,99466.87
2019-04-22T01:28:43.427Z,99469.80
2019-04-22T01:31:07.847Z,99475.99
2019-04-22T01:33:38.371Z,99470.22
2019-04-22T01:36:25.866Z,99467.16
2019-04-22T01:38:58.356Z,99473.36
2019-04-22T01:41:35.569Z,99467.16
2019-04-22T01:44:05.700Z,99467.78
2019-04-22T01:46:32.008Z,99461.50
2019-04-22T01:48:59.808Z,99464.22
2019-04-22T01:51:47.145Z,99463.83
2019-04-22T01:54:05.499Z,99454.58
2019-04-22T01:56:36.175Z,99449.40
2019-04-22T01:58:54.646Z,99447.39
2019-04-22T02:01:40.966Z,99448.78
2019-04-22T02:04:01.263Z,99445.42
2019-04-22T02:06:35.151Z,99438.97
2019-04-22T02:09:12.513Z,99448.96
2019-04-22T02:11:38.906Z,99442.88
2019-04-22T02:14:04.374Z,99448.11
2019-04-22T02:16:34.254Z,99444.36
2019-04-22T02:19:13.274Z,99441.58
2019-04-22T02:21:35.654Z,99442.66
2019-04-22T02:24:09.067Z,99439.02
2019-04-22T02:26:54.585Z,99442.44
2019-04-22T02:29:06.560Z,99444.22
2019-04-22T02:31:45.028Z,99443.18
2019-04-22T02:36:43.075Z,99442.34
2019-04-22T02:39:15.779Z,99434.66
2019-04-22T02:44:17.777Z,99429.78
2019-04-22T02:49:18.856Z,99431.80
2019-04-22T02:51:40.730Z,99435.30
2019-04-22T02:57:03.314Z,99425.70
2019-04-22T02:59:22.404Z,99423.14
2019-04-22T03:12:00.890Z,99399.91
2019-04-22T03:14:37.143Z,99397.69
2019-04-22T03:16:50.462Z,99395.73
2019-04-22T03:24:36.313Z,99379.84
2019-04-22T03:37:49.112Z,99358.83
2019-04-22T03:40:13.987Z,99360.64
2019-04-22T03:42:45.712Z,99356.09
2019-04-22T03:45:20.248Z,99354.98
2019-04-22T03:50:15.782Z,99347.38
2019-04-22T03:52:39.098Z,99344.44
2019-04-22T03:57:49.111Z,99344.50
2019-04-22T04:05:10.738Z,99347.08
2019-04-22T04:07:47.505Z,99349.59
2019-04-22T04:10:20.040Z,99352.28
2019-04-22T04:12:53.861Z,99344.87
2019-04-22T04:15:18.942Z,99343.00
2019-04-22T04:17:50.597Z,99340.52
2019-04-22T04:20:21.546Z,99342.09
2019-04-22T04:35:28.059Z,99332.86
2019-04-22T04:37:52.395Z,99333.86
2019-04-22T04:40:21.241Z,99331.94
2019-04-22T04:42:46.402Z,99330.02
2019-04-22T04:45:34.089Z,99323.31
2019-04-22T04:47:47.665Z,99327.55
2019-04-22T04:50:12.081Z,99325.13
2019-04-22T05:03:02.601Z,99324.44
2019-04-22T05:05:20.784Z,99327.89
2019-04-22T05:10:39.161Z,99328.81
2019-04-22T05:15:19.984Z,99329.37
2019-04-22T05:17:54.296Z,99327.16
2019-04-22T05:20:29.004Z,99328.42
2019-04-22T05:22:44.222Z,99331.29
2019-04-22T05:32:42.976Z,99326.30
2019-04-22T05:35:18.842Z,99328.16
2019-04-22T05:37:50.620Z,99329.00
2019-04-22T05:42:46.121Z,99320.91
2019-04-22T05:45:17.635Z,99317.00
2019-04-22T05:47:46.404Z,99312.80
2019-04-22T05:50:16.947Z,99309.70
2019-04-22T05:52:51.100Z,99304.17
2019-04-22T05:55:33.330Z,99316.20
2019-04-22T05:57:59.684Z,99314.64
2019-04-22T06:00:34.976Z,99310.42
2019-04-22T06:05:43.888Z,99297.54
2019-04-22T06:08:02.330Z,99290.19
2019-04-22T06:10:34.414Z,99294.62
2019-04-22T06:12:58.182Z,99290.02
2019-04-22T06:15:29.063Z,99292.66
2019-04-22T06:18:16.233Z,99290.84
2019-04-22T06:20:37.030Z,99293.37
2019-04-22T06:23:13.101Z,99287.52
2019-04-22T06:26:05.297Z,99277.52
2019-04-22T06:28:15.590Z,99283.67
2019-04-22T06:30:41.429Z,99276.47
2019-04-22T06:38:28.574Z,99274.02
2019-04-22T06:40:41.670Z,99271.52
2019-04-22T06:43:23.555Z,99276.28
2019-04-22T06:45:38.374Z,99277.41
2019-04-22T06:48:19.232Z,99276.92
2019-04-22T06:50:47.569Z,99276.39
2019-04-22T06:53:21.847Z,99274.55
2019-04-22T06:55:47.079Z,99273.77
2019-04-22T06:58:15.242Z,99267.45
2019-04-22T07:05:46.390Z,99259.11
2019-04-22T07:08:46.883Z,99259.98
2019-04-22T07:10:54.865Z,99250.81
2019-04-22T07:13:21.101Z,99253.82
2019-04-22T07:15:50.490Z,99252.92
2019-04-22T07:20:51.267Z,99232.77
2019-04-22T07:23:24.846Z,99234.08
2019-04-22T07:25:45.167Z,99233.58
2019-04-22T07:28:15.610Z,99235.16
2019-04-22T07:30:44.787Z,99227.18
2019-04-22T07:35:56.074Z,99222.27
2019-04-22T07:38:25.568Z,99217.36
2019-04-22T07:45:48.714Z,99195.22
2019-04-22T07:48:26.437Z,99197.38
2019-04-22T07:50:56.063Z,99201.60
2019-04-22T07:53:19.847Z,99197.28
2019-04-22T07:55:50.794Z,99195.61
2019-04-22T08:01:12.222Z,99192.65
2019-04-22T08:03:44.052Z,99186.56
2019-04-22T08:05:58.559Z,99187.71
2019-04-22T08:10:58.020Z,99182.42
2019-04-22T08:13:25.310Z,99176.30
2019-04-22T08:15:53.797Z,99176.84
2019-04-22T08:20:56.612Z,99165.09
2019-04-22T08:23:23.811Z,99170.42
2019-04-22T08:26:05.472Z,99164.83
2019-04-22T08:28:25.315Z,99163.75
2019-04-22T08:30:56.766Z,99165.34
2019-04-22T08:36:06.895Z,99160.29
2019-04-22T08:38:25.580Z,99149.91
2019-04-22T08:41:23.143Z,99153.62
2019-04-22T08:43:53.599Z,99146.13
2019-04-22T08:46:23.522Z,99143.20
2019-04-22T08:48:51.639Z,99143.45
2019-04-22T08:51:23.519Z,99144.81
2019-04-22T08:53:57.423Z,99143.47
2019-04-22T08:58:50.710Z,99136.01
2019-04-22T09:01:17.727Z,99126.11
2019-04-22T09:03:47.065Z,99128.23
2019-04-22T09:08:50.474Z,99125.47
2019-04-22T09:11:21.670Z,99117.67
2019-04-22T09:13:50.547Z,99113.61
2019-04-22T09:16:19.324Z,99114.30
2019-04-22T09:18:48.559Z,99110.44
2019-04-22T09:21:31.656Z,99103.13
2019-04-22T09:23:56.836Z,99100.83
2019-04-22T09:26:20.203Z,99095.08
2019-04-22T09:28:54.519Z,99097.06
2019-04-22T09:31:29.302Z,99089.97
2019-04-22T09:33:44.506Z,99090.30
2019-04-22T09:36:22.697Z,99082.57
2019-04-22T09:41:18.971Z,99078.66
2019-04-22T09:43:53.656Z,99074.20
2019-04-22T09:46:17.085Z,99071.87
2019-04-22T09:48:51.844Z,99074.00
2019-04-22T09:51:11.627Z,99064.65
2019-04-22T09:53:57.798Z,99065.80
2019-04-22T09:56:17.636Z,99063.72
2019-04-22T09:58:53.495Z,99052.98
2019-04-22T10:01:24.543Z,99054.54
2019-04-22T10:03:51.662Z,99046.91
2019-04-22T10:11:23.589Z,99035.28
2019-04-22T10:13:53.825Z,99034.01
2019-04-22T10:16:25.332Z,99019.70
2019-04-22T10:18:52.868Z,99018.92
2019-04-22T10:21:27.425Z,99007.95
2019-04-22T10:23:53.346Z,99005.47
2019-04-22T10:26:21.824Z,98996.94
2019-04-22T10:28:55.819Z,98996.42
2019-04-22T10:31:24.916Z,98988.43
2019-04-22T10:33:42.157Z,98988.16
2019-04-22T10:35:53.255Z,98984.81
2019-04-22T10:38:22.060Z,98971.20
2019-04-22T10:40:50.445Z,98968.31
2019-04-22T10:43:19.155Z,98965.17
2019-04-22T10:45:48.080Z,98949.79
2019-04-22T10:48:18.534Z,98947.69
2019-04-22T10:50:48.806Z,98944.38
2019-04-22T10:53:17.733Z,98940.10
2019-04-22T10:55:49.306Z,98934.96
2019-04-22T10:58:18.439Z,98923.88
2019-04-22T11:00:47.353Z,98926.16
2019-04-22T11:03:16.180Z,98919.80
2019-04-22T11:05:46.130Z,98913.05
2019-04-22T11:08:22.985Z,98904.36
2019-04-22T11:11:00.417Z,98907.67
2019-04-22T11:13:15.792Z,98901.64
2019-04-22T11:15:44.578Z,98898.03
2019-04-22T11:18:15.715Z,98894.53
2019-04-22T11:20:45.074Z,98888.20
2019-04-22T11:23:14.381Z,98881.02
2019-04-22T11:25:43.898Z,98881.39
2019-04-22T11:28:13.587Z,98875.47
2019-04-22T11:30:42.775Z,98872.61
2019-04-22T11:33:12.097Z,98863.74
2019-04-22T11:35:41.440Z,98859.37
2019-04-22T11:38:10.765Z,98847.03
2019-04-22T11:40:43.614Z,98850.02
2019-04-22T11:43:10.159Z,98835.70
2019-04-22T11:45:39.637Z,98829.34
2019-04-22T11:48:09.141Z,98828.35
2019-04-22T11:50:37.949Z,98826.70
2019-04-22T11:53:07.070Z,98825.81
2019-04-22T11:55:35.406Z,98818.02
2019-04-22T11:58:03.724Z,98810.02
2019-04-22T12:00:34.973Z,98799.33
2019-04-22T12:03:05.059Z,98805.75
2019-04-22T12:05:34.335Z,98800.53
2019-04-22T12:08:03.041Z,98797.52
2019-04-22T12:10:38.888Z,98794.14
2019-04-22T12:13:02.133Z,98783.12
2019-04-22T12:15:31.130Z,98783.59
2019-04-22T12:17:59.427Z,98780.48
2019-04-22T12:20:27.643Z,98769.38
2019-04-22T12:22:56.731Z,98769.50
2019-04-22T12:25:34.904Z,98763.38
2019-04-22T12:27:57.045Z,98764.63
2019-04-22T12:30:25.699Z,98763.04
2019-04-22T12:32:55.487Z,98761.05
2019-04-22T12:35:24.348Z,98747.55
2019-04-22T12:37:57.551Z,98752.01
2019-04-22T12:40:35.456Z,98746.50
2019-04-22T12:42:53.520Z,98740.38
2019-04-22T12:45:22.498Z,98735.17
2019-04-22T12:47:52.038Z,98733.86
2019-04-22T12:50:26.238Z,98722.38
2019-04-22T12:52:57.309Z,98722.42
2019-04-22T12:55:21.922Z,98721.26
2019-04-22T12:57:53.929Z,98713.81
2019-04-22T13:00:22.574Z,98709.92
2019-04-22T13:02:51.399Z,98702.67
2019-04-22T13:05:20.161Z,98695.03
2019-04-22T13:07:49.585Z,98694.05
2019-04-22T13:10:20.154Z,98684.09
2019-04-22T13:12:48.881Z,98677.33
2019-04-22T13:15:18.236Z,98673.43
2019-04-22T13:17:59.482Z,98666.64
2019-04-22T13:20:18.858Z,98665.48
2019-04-22T13:22:48.647Z,98665.06
2019-04-22T13:25:19.769Z,98659.02
2019-04-22T13:27:49.091Z,98649.42
2019-04-22T13:30:20.835Z,98642.02
2019-04-22T13:32:49.936Z,98639.45
2019-04-22T13:35:19.995Z,98637.66
2019-04-22T13:37:48.728Z,98632.41
2019-04-22T13:40:21.012Z,98627.55
2019-04-22T13:42:49.258Z,98625.38
2019-04-22T13:45:20.004Z,98626.56
2019-04-22T13:48:09.880Z,98620.48
2019-04-22T13:50:49.397Z,98624.39
2019-04-22T13:53:34.329Z,98614.25
2019-04-22T13:55:46.098Z,98612.88
2019-04-22T13:58:02.644Z,98606.19
2019-04-22T14:00:26.951Z,98602.48
2019-04-22T14:03:26.805Z,98610.88
2019-04-22T14:05:55.205Z,98597.80
2019-04-22T14:08:24.879Z,98594.62
2019-04-22T14:10:54.169Z,98592.47
2019-04-22T14:13:23.748Z,98595.58
2019-04-22T14:15:53.061Z,98574.80
2019-04-22T14:18:21.194Z,98580.81
2019-04-22T14:20:52.299Z,98575.94
2019-04-22T14:23:20.531Z,98566.95
2019-04-22T14:25:48.882Z,98564.20
2019-04-22T14:28:19.328Z,98562.83
2019-04-22T14:30:48.478Z,98562.23
2019-04-22T14:33:18.176Z,98561.44
2019-04-22T14:35:47.972Z,98559.16
2019-04-22T14:38:18.722Z,98551.96
2019-04-22T14:40:48.252Z,98547.66
2019-04-22T14:43:37.990Z,98545.53
2019-04-22T14:46:14.832Z,98545.70
2019-04-22T14:48:45.834Z,98539.13
2019-04-22T14:51:09.104Z,98537.18
2019-04-22T14:53:35.526Z,98543.27
2019-04-22T14:55:48.555Z,98532.56
2019-04-22T14:58:17.299Z,98531.83
2019-04-22T15:00:45.958Z,98526.41
2019-04-22T15:03:15.577Z,98526.12
2019-04-22T15:05:44.211Z,98521.78
2019-04-22T15:08:13.148Z,98519.85
2019-04-22T15:10:42.224Z,98521.02
2019-04-22T15:13:11.721Z,98512.71
2019-04-22T15:16:00.762Z,98507.63
2019-04-22T15:18:37.723Z,98508.98
2019-04-22T15:21:09.056Z,98512.88
2019-04-22T15:23:38.462Z,98511.81
2019-04-22T15:26:06.717Z,98510.71
2019-04-22T15:28:35.538Z,98502.09
2019-04-22T15:31:03.894Z,98506.25
2019-04-22T15:33:33.111Z,98504.64
2019-04-22T15:36:01.473Z,98501.84
2019-04-22T15:38:30.240Z,98495.75
2019-04-22T15:40:58.691Z,98494.88
2019-04-22T15:43:29.744Z,98493.80
2019-04-22T15:46:00.042Z,98501.97
2019-04-22T15:48:27.286Z,98496.47
2019-04-22T15:50:55.480Z,98489.33
2019-04-22T15:53:23.539Z,98490.33
2019-04-22T15:55:54.541Z,98485.55
2019-04-22T15:58:23.832Z,98485.83
2019-04-22T16:01:02.613Z,98482.28
2019-04-22T16:03:22.776Z,98487.31
2019-04-22T16:05:52.595Z,98479.16
2019-04-22T16:08:21.403Z,98483.89
2019-04-22T16:10:49.630Z,98475.84
2019-04-22T16:13:23.056Z,98479.02
2019-04-22T16:15:48.989Z,98475.89
2019-04-22T16:18:18.223Z,98472.05
2019-04-22T16:20:48.207Z,98474.84
2019-04-22T16:23:42.402Z,98473.39
2019-04-22T16:26:18.044Z,98465.97
2019-04-22T16:28:47.331Z,98459.73
2019-04-22T16:31:15.508Z,98457.67
2019-04-22T16:33:45.822Z,98462.39
2019-04-22T16:36:13.581Z,98455.75
2019-04-22T16:38:42.801Z,98455.50
2019-04-22T16:41:12.926Z,98451.86
2019-04-22T16:43:42.728Z,98444.62
2019-04-22T16:46:11.713Z,98438.52
2019-04-22T16:48:40.022Z,98439.37
2019-04-22T16:51:09.765Z,98437.33
2019-04-22T16:53:38.967Z,98433.36
2019-04-22T16:56:08.819Z,98427.48
2019-04-22T16:58:37.025Z,98430.71
2019-04-22T17:01:08.573Z,98429.86
2019-04-22T17:03:54.807Z,98428.48
2019-04-22T17:06:35.381Z,98426.53
2019-04-22T17:09:06.710Z,98419.30
2019-04-22T17:11:35.966Z,98418.78
2019-04-22T17:14:05.588Z,98417.72
2019-04-22T17:16:34.490Z,98414.76
2019-04-22T17:19:04.502Z,98416.50
2019-04-22T17:21:33.216Z,98412.71
2019-04-22T17:24:01.677Z,98413.00
2019-04-22T17:26:30.435Z,98417.55
2019-04-22T17:29:02.191Z,98418.13
2019-04-22T17:31:29.093Z,98416.72
2019-04-22T17:33:57.270Z,98416.20
2019-04-22T17:36:26.510Z,98414.11
2019-04-22T17:39:07.059Z,98408.50
2019-04-22T17:41:41.811Z,98415.23
2019-04-22T17:44:28.777Z,98411.80
2019-04-22T17:46:48.784Z,98411.89
2019-04-22T17:49:37.714Z,98413.32
2019-04-22T17:54:50.460Z,98424.01
2019-04-22T17:57:29.006Z,98411.75
2019-04-22T18:00:06.456Z,98416.34
2019-04-22T18:02:22.123Z,98415.53
2019-04-22T18:04:43.912Z,98420.67
2019-04-22T18:07:38.559Z,98424.14
2019-04-22T18:12:40.052Z,98411.98
2019-04-22T18:17:30.468Z,98409.27
2019-04-22T18:19:54.704Z,98408.75
2019-04-22T18:22:21.759Z,98407.70
2019-04-22T18:24:55.759Z,98413.02
2019-04-22T18:27:43.430Z,98407.55
2019-04-22T18:29:51.528Z,98409.06
2019-04-22T18:32:18.037Z,98403.11
2019-04-22T18:34:49.527Z,98402.45
2019-04-22T18:37:19.954Z,98402.41
2019-04-22T18:39:58.483Z,98402.06
2019-04-22T18:42:23.865Z,98398.70
2019-04-22T18:45:09.911Z,98397.02
2019-04-22T18:47:25.123Z,98397.13
2019-04-22T18:49:49.307Z,98398.11
2019-04-22T18:53:07.028Z,98399.09
2019-04-22T18:55:49.246Z,98396.56
2019-04-22T19:00:31.860Z,98396.08
2019-04-22T19:03:07.214Z,98397.94
2019-04-22T19:05:49.430Z,98397.57
2019-04-22T19:08:28.315Z,98400.73
2019-04-22T19:11:00.611Z,98397.44
2019-04-22T19:16:09.824Z,98397.23
2019-04-22T19:18:32.360Z,98399.58
2019-04-22T19:20:59.886Z,98402.45
2019-04-22T19:23:28.579Z,98392.21
2019-04-22T19:25:55.984Z,98395.86
2019-04-22T19:28:36.115Z,98395.53
2019-04-22T19:31:02.544Z,98401.58
2019-04-22T19:33:31.579Z,98394.48
2019-04-22T19:35:59.494Z,98395.48
2019-04-22T19:38:16.528Z,98398.31
2019-04-22T19:43:28.711Z,98392.80
2019-04-22T19:45:55.766Z,98390.59
2019-04-22T19:48:32.911Z,98390.78
2019-04-22T19:51:07.791Z,98386.38
2019-04-22T19:53:35.570Z,98382.76
2019-04-22T19:55:58.196Z,98383.72
2019-04-22T19:58:25.824Z,98374.48
2019-04-22T20:01:22.132Z,98383.41
2019-04-22T20:04:44.458Z,98382.69
2019-04-22T20:07:07.352Z,98382.01
2019-04-22T20:09:39.703Z,98373.36
2019-04-22T20:12:04.319Z,98369.16
2019-04-22T20:14:35.270Z,98370.59
2019-04-22T20:17:02.487Z,98370.14
2019-04-22T20:22:03.095Z,98361.80
2019-04-22T20:24:23.876Z,98353.63
2019-04-22T20:27:09.315Z,98350.52
2019-04-22T20:29:42.029Z,98342.33
2019-04-22T20:32:05.938Z,98343.45
2019-04-22T20:34:37.980Z,98341.95
2019-04-22T20:37:10.460Z,98333.72
2019-04-22T20:39:38.041Z,98327.93
2019-04-22T20:42:17.792Z,98327.18
2019-04-22T20:44:41.049Z,98316.81
2019-04-22T20:47:09.096Z,98324.31
2019-04-22T20:49:40.297Z,98315.86
2019-04-22T20:52:16.066Z,98316.69
2019-04-22T20:54:37.334Z,98304.48
2019-04-22T20:57:05.837Z,98314.67
2019-04-22T20:59:33.371Z,98299.53
2019-04-22T21:02:03.674Z,98303.56
2019-04-22T21:04:28.715Z,98296.64
2019-04-22T21:07:02.191Z,98300.93
2019-04-22T21:09:33.681Z,98302.30
2019-04-22T21:12:02.100Z,98296.47
2019-04-22T21:14:32.454Z,98294.34
2019-04-22T21:17:11.912Z,98290.64
2019-04-22T21:22:07.966Z,98287.72
2019-04-22T21:24:36.077Z,98282.94
2019-04-22T21:27:16.810Z,98295.17
2019-04-22T21:29:33.404Z,98293.59
2019-04-22T21:32:07.648Z,98293.87
2019-04-22T21:34:46.195Z,98285.34
2019-04-22T21:37:14.580Z,98283.25
2019-04-22T21:39:40.178Z,98284.33
2019-04-22T21:42:14.196Z,98285.66
2019-04-22T21:44:38.349Z,98277.14
2019-04-22T21:49:45.944Z,98266.16
2019-04-22T21:52:19.753Z,98260.84
2019-04-22T21:54:52.201Z,98262.13
2019-04-22T21:57:50.292Z,98260.80
2019-04-22T22:00:22.679Z,98247.20
2019-04-22T22:02:49.202Z,98247.66
2019-04-22T22:05:14.074Z,98249.50
2019-04-22T22:07:29.168Z,98243.80
2019-04-22T22:10:14.990Z,98241.63
2019-04-22T22:12:48.390Z,98242.66
2019-04-22T22:15:20.568Z,98239.13
2019-04-22T22:17:45.787Z,98238.58
2019-04-22T22:20:12.762Z,98225.47
2019-04-22T22:22:52.239Z,98220.92
2019-04-22T22:25:19.954Z,98213.42
2019-04-22T22:27:44.880Z,98220.88
2019-04-22T22:30:36.843Z,98218.21
2019-04-22T22:32:49.514Z,98220.88
2019-04-22T22:35:20.453Z,98218.75
2019-04-22T22:37:51.769Z,98215.59
2019-04-22T22:40:07.662Z,98211.34
2019-04-22T22:42:36.947Z,98212.69
2019-04-22T22:45:07.826Z,98220.42
2019-04-22T22:47:44.554Z,98210.60
2019-04-22T22:50:23.293Z,98218.89
2019-04-22T22:53:04.190Z,98218.89
2019-04-22T22:55:24.958Z,98215.19
2019-04-22T22:57:49.879Z,98221.60
2019-04-22T23:00:19.432Z,98213.08
2019-04-22T23:03:06.978Z,98207.78
2019-04-22T23:05:30.612Z,98212.91
2019-04-22T23:08:00.560Z,98204.67
2019-04-22T23:10:34.251Z,98197.52
2019-04-22T23:13:05.350Z,98202.09
2019-04-22T23:15:26.077Z,98196.27
2019-04-22T23:17:39.764Z,98188.03
2019-04-22T23:20:09.528Z,98184.08
2019-04-22T23:23:04.393Z,98197.94
2019-04-22T23:25:53.604Z,98173.77
2019-04-22T23:28:05.978Z,98175.96
2019-04-22T23:30:43.326Z,98178.39
2019-04-22T23:33:26.533Z,98179.80
2019-04-22T23:36:01.533Z,98187.56
2019-04-22T23:38:42.834Z,98184.16
2019-04-22T23:41:39.213Z,98180.48
2019-04-22T23:44:02.012Z,98177.57
2019-04-22T23:46:30.144Z,98172.86
2019-04-22T23:49:04.291Z,98167.31
2019-04-22T23:51:39.662Z,98176.95
2019-04-22T23:54:09.064Z,98180.17
2019-04-22T23:56:36.417Z,98180.72
2019-04-22T23:59:13.432Z,98173.59
